Time;durP1;ratioP1;P1;durP2;ratioP2;P2;SDS_P1;SDS_P2;PMS_P1;PMS_P2;Temp;Humidity;BMP_temperature;BMP_pressure;BME280_temperature;BME280_humidity;BME280_pressure;Samples;Min_cycle;Max_cycle;Signal;HPM_P1;HPM_P2
2022/04/10 00:00:43;;;;;;;;;;;;;;;6.10;100.00;98995.34;5004274;28;20394;-36
2022/04/10 00:03:08;;;;;;;;;;;;;;;5.21;100.00;98996.41;5003199;28;19921;-36
2022/04/10 00:05:33;;;;;;;;;;;;;;;5.62;100.00;99002.78;5003359;28;19936;-37
2022/04/10 00:07:59;;;;;;;;;;;;;;;5.97;100.00;98988.72;5002124;28;19918;-37
2022/04/10 00:10:24;;;;;;;;;;;;;;;5.79;100.00;98995.75;5004278;28;19922;-37
2022/04/10 00:12:49;;;;;;;;;;;;;;;5.33;100.00;98986.06;5003300;28;20104;-37
2022/04/10 00:15:14;;;;;;;;;;;;;;;5.16;100.00;98993.91;5003575;28;20004;-37
2022/04/10 00:17:40;;;;;;;;;;;;;;;4.80;100.00;98995.94;5003615;28;20441;-37
2022/04/10 00:20:05;;;;;;;;;;;;;;;5.40;100.00;98990.22;5001986;28;19922;-37
2022/04/10 00:22:30;;;;;;;;;;;;;;;5.63;100.00;98996.78;5001770;28;20572;-37
2022/04/10 00:24:56;;;;;;;;;;;;;;;4.65;100.00;98992.69;5003511;28;19957;-36
2022/04/10 00:27:21;;;;;;;;;;;;;;;4.77;100.00;98995.16;5004299;28;19917;-37
2022/04/10 00:29:46;;;;;;;;;;;;;;;4.59;100.00;99001.25;5003558;28;19949;-37
2022/04/10 00:32:12;;;;;;;;;;;;;;;4.90;100.00;99004.34;5002890;28;19921;-37
2022/04/10 00:34:37;;;;;;;;;;;;;;;4.89;100.00;99007.78;5004007;28;20055;-36
2022/04/10 00:37:02;;;;;;;;;;;;;;;5.61;100.00;99001.06;5002044;28;19929;-36
2022/04/10 00:39:27;;;;;;;;;;;;;;;5.05;100.00;99005.09;5001545;28;20191;-37
2022/04/10 00:41:53;;;;;;;;;;;;;;;4.45;100.00;99009.00;5001887;28;19931;-37
2022/04/10 00:44:18;;;;;;;;;;;;;;;5.81;100.00;99022.09;5001897;28;19929;-36
2022/04/10 00:46:43;;;;;;;;;;;;;;;5.28;100.00;99013.34;5002123;28;20020;-37
2022/04/10 00:49:08;;;;;;;;;;;;;;;5.09;100.00;99016.97;5001712;28;20044;-37
2022/04/10 00:51:40;;;;;;;;;;;;;;;4.56;100.00;99012.31;5001947;28;20575;-37
2022/04/10 00:54:07;;;;;;;;;;;;;;;5.33;100.00;99011.59;4986078;28;20464;-37
2022/04/10 00:56:32;;;;;;;;;;;;;;;5.25;100.00;99018.50;5000674;28;19984;-37
2022/04/10 00:58:57;;;;;;;;;;;;;;;4.89;100.00;99025.63;5003492;28;19918;-36
2022/04/10 01:01:23;;;;;;;;;;;;;;;4.66;100.00;99023.28;5000678;28;19925;-37
2022/04/10 01:03:48;;;;;;;;;;;;;;;4.80;100.00;99025.72;5002289;28;19917;-37
2022/04/10 01:06:13;;;;;;;;;;;;;;;4.69;100.00;99035.16;5002582;28;20027;-38
2022/04/10 01:08:38;;;;;;;;;;;;;;;4.51;100.00;99024.22;5002001;28;19917;-37
2022/04/10 01:11:04;;;;;;;;;;;;;;;4.19;100.00;99025.28;5002316;28;19929;-37
2022/04/10 01:13:29;;;;;;;;;;;;;;;4.29;100.00;99032.88;4999778;28;19932;-37
2022/04/10 01:15:54;;;;;;;;;;;;;;;4.63;100.00;99036.06;5002775;28;19913;-37
2022/04/10 01:18:20;;;;;;;;;;;;;;;4.49;100.00;99036.13;5002770;28;19960;-37
2022/04/10 01:20:45;;;;;;;;;;;;;;;4.25;100.00;99038.88;5001162;28;19928;-36
2022/04/10 01:23:10;;;;;;;;;;;;;;;4.28;100.00;99036.28;5000491;28;19980;-36
2022/04/10 01:25:35;;;;;;;;;;;;;;;4.42;100.00;99039.59;5000727;28;20346;-36
2022/04/10 01:28:01;;;;;;;;;;;;;;;4.23;100.00;99049.06;5002215;28;19921;-37
2022/04/10 01:30:27;;;;;;;;;;;;;;;4.52;100.00;99042.94;5003024;28;20016;-37
2022/04/10 01:32:52;;;;;;;;;;;;;;;4.43;100.00;99041.31;5001928;28;20008;-37
2022/04/10 01:35:18;;;;;;;;;;;;;;;4.22;100.00;99042.28;5002935;28;19921;-37
2022/04/10 01:37:44;;;;;;;;;;;;;;;4.22;100.00;99039.75;5002132;28;19921;-37
2022/04/10 01:40:10;;;;;;;;;;;;;;;4.33;100.00;99037.09;5002287;28;19925;-37
2022/04/10 01:42:36;;;;;;;;;;;;;;;4.16;100.00;99038.06;5001728;28;20024;-37
2022/04/10 01:45:01;;;;;;;;;;;;;;;4.26;100.00;99048.19;5000882;28;19971;-37
2022/04/10 01:47:26;;;;;;;;;;;;;;;4.22;100.00;99043.97;5002007;28;19918;-37
2022/04/10 01:49:51;;;;;;;;;;;;;;;4.26;100.00;99048.19;5001730;28;19917;-37
2022/04/10 01:52:16;;;;;;;;;;;;;;;3.97;100.00;99047.50;5001725;28;19932;-37
2022/04/10 01:54:42;;;;;;;;;;;;;;;4.19;100.00;99053.31;5001482;28;19922;-37
2022/04/10 01:57:07;;;;;;;;;;;;;;;4.29;100.00;99053.25;5001405;28;20046;-37
2022/04/10 01:59:32;;;;;;;;;;;;;;;4.58;100.00;99048.84;5001248;28;20056;-37
2022/04/10 02:01:57;;;;;;;;;;;;;;;4.18;100.00;99046.53;5000814;28;19917;-37
2022/04/10 02:04:23;;;;;;;;;;;;;;;4.19;100.00;99048.22;4999525;28;19932;-37
2022/04/10 02:06:48;;;;;;;;;;;;;;;4.90;100.00;99041.78;4998501;28;19944;-37
2022/04/10 02:09:14;;;;;;;;;;;;;;;4.23;100.00;99054.16;5001836;28;20341;-37
2022/04/10 02:11:39;;;;;;;;;;;;;;;4.36;100.00;99044.75;5000943;28;19921;-37
2022/04/10 02:14:04;;;;;;;;;;;;;;;4.39;100.00;99044.72;5001390;28;19917;-37
2022/04/10 02:16:29;;;;;;;;;;;;;;;4.56;100.00;99045.47;5000286;28;19921;-37
2022/04/10 02:18:55;;;;;;;;;;;;;;;4.14;100.00;99052.50;5000744;28;19971;-37
2022/04/10 02:21:20;;;;;;;;;;;;;;;4.25;100.00;99047.34;5001283;28;20495;-37
2022/04/10 02:23:45;;;;;;;;;;;;;;;4.26;100.00;99043.94;5001579;28;20439;-37
2022/04/10 02:26:11;;;;;;;;;;;;;;;4.47;100.00;99053.19;5000688;28;19921;-37
2022/04/10 02:28:37;;;;;;;;;;;;;;;4.31;100.00;99054.09;5001259;28;19957;-37
2022/04/10 02:31:02;;;;;;;;;;;;;;;4.22;100.00;99051.63;5001263;28;19971;-37
2022/04/10 02:33:27;;;;;;;;;;;;;;;4.08;100.00;99057.66;5000914;28;19949;-37
2022/04/10 02:35:53;;;;;;;;;;;;;;;4.00;100.00;99059.38;5001069;28;19925;-37
2022/04/10 02:38:18;;;;;;;;;;;;;;;4.04;100.00;99053.41;5000013;28;19922;-37
2022/04/10 02:40:44;;;;;;;;;;;;;;;3.96;100.00;99061.06;5001189;28;19918;-37
2022/04/10 02:43:10;;;;;;;;;;;;;;;3.95;100.00;99064.50;4999915;28;20084;-37
2022/04/10 02:45:36;;;;;;;;;;;;;;;4.05;100.00;99064.44;5001667;28;20508;-37
2022/04/10 02:48:01;;;;;;;;;;;;;;;4.08;100.00;99062.75;5000419;28;20004;-37
2022/04/10 02:50:26;;;;;;;;;;;;;;;4.27;100.00;99062.66;5001257;28;19928;-37
2022/04/10 02:52:52;;;;;;;;;;;;;;;4.00;100.00;99071.28;5000127;28;19921;-37
2022/04/10 02:55:17;;;;;;;;;;;;;;;3.88;100.00;99069.63;5001290;28;19944;-37
2022/04/10 02:57:43;;;;;;;;;;;;;;;4.01;100.00;99073.81;4999815;28;20317;-37
2022/04/10 03:00:08;;;;;;;;;;;;;;;3.97;100.00;99077.25;4998113;28;19965;-37
2022/04/10 03:02:33;;;;;;;;;;;;;;;4.00;100.00;99074.66;5000293;28;19917;-37
2022/04/10 03:04:59;;;;;;;;;;;;;;;4.16;100.00;99076.28;5000584;28;19918;-38
2022/04/10 03:07:24;;;;;;;;;;;;;;;4.31;100.00;99066.84;5000421;28;19921;-37
2022/04/10 03:09:49;;;;;;;;;;;;;;;4.48;100.00;99072.72;4999981;28;19932;-37
2022/04/10 03:12:14;;;;;;;;;;;;;;;4.01;100.00;99073.81;4999699;28;19932;-37
2022/04/10 03:14:40;;;;;;;;;;;;;;;4.08;100.00;99080.59;5000833;28;19918;-37
2022/04/10 03:17:05;;;;;;;;;;;;;;;3.95;100.00;99081.50;5000589;28;20383;-37
2022/04/10 03:19:30;;;;;;;;;;;;;;;3.92;100.00;99090.00;5000124;28;20376;-37
2022/04/10 03:21:55;;;;;;;;;;;;;;;4.21;100.00;99091.56;4999644;28;19923;-37
2022/04/10 03:24:20;;;;;;;;;;;;;;;4.12;100.00;99092.44;5000402;28;20275;-37
2022/04/10 03:26:46;;;;;;;;;;;;;;;4.71;100.00;99087.03;5000330;28;20028;-37
2022/04/10 03:29:12;;;;;;;;;;;;;;;3.96;100.00;99101.00;5000777;28;20034;-37
2022/04/10 03:31:37;;;;;;;;;;;;;;;3.70;100.00;99099.41;4999233;28;19924;-37
2022/04/10 03:34:03;;;;;;;;;;;;;;;4.32;100.00;99100.00;5000557;28;19917;-37
2022/04/10 03:36:28;;;;;;;;;;;;;;;4.57;100.00;99103.25;5000162;28;19918;-37
2022/04/10 03:38:53;;;;;;;;;;;;;;;4.35;100.00;99110.16;5000150;28;19921;-37
2022/04/10 03:41:18;;;;;;;;;;;;;;;4.89;100.00;99102.19;4998917;28;19936;-37
2022/04/10 03:43:43;;;;;;;;;;;;;;;4.71;100.00;99100.63;4999785;28;19928;-37
2022/04/10 03:46:09;;;;;;;;;;;;;;;4.36;100.00;99111.88;4996387;28;19930;-37
2022/04/10 03:48:34;;;;;;;;;;;;;;;5.02;100.00;99108.91;5003272;28;19947;-37
2022/04/10 03:50:59;;;;;;;;;;;;;;;4.22;100.00;99113.66;5002996;28;19927;-37
2022/04/10 03:53:25;;;;;;;;;;;;;;;4.75;100.00;99109.09;5002823;28;20375;-37
2022/04/10 03:55:51;;;;;;;;;;;;;;;4.08;100.00;99113.72;5004522;28;20591;-37
2022/04/10 03:58:16;;;;;;;;;;;;;;;5.24;100.00;99119.78;5003445;28;19976;-37
2022/04/10 04:00:41;;;;;;;;;;;;;;;5.24;100.00;99121.47;5002589;28;19927;-37
2022/04/10 04:03:06;;;;;;;;;;;;;;;3.96;100.00;99123.94;5002413;28;19917;-37
2022/04/10 04:05:32;;;;;;;;;;;;;;;4.40;100.00;99133.09;5003831;28;19921;-37
2022/04/10 04:07:57;;;;;;;;;;;;;;;4.26;100.00;99134.88;5001449;28;19924;-37
2022/04/10 04:10:22;;;;;;;;;;;;;;;3.95;100.00;99130.75;5003525;28;19925;-37
2022/04/10 04:12:47;;;;;;;;;;;;;;;5.51;100.00;99138.25;5002347;28;19967;-37
2022/04/10 04:15:13;;;;;;;;;;;;;;;4.65;100.00;99144.00;5003460;28;19932;-37
2022/04/10 04:17:38;;;;;;;;;;;;;;;4.67;100.00;99141.47;5002777;28;19925;-37
2022/04/10 04:20:04;;;;;;;;;;;;;;;4.93;100.00;99141.31;5002891;28;19921;-37
2022/04/10 04:22:30;;;;;;;;;;;;;;;4.45;100.00;99144.13;5002466;28;20429;-37
2022/04/10 04:24:55;;;;;;;;;;;;;;;4.56;100.00;99141.50;5003268;28;19917;-37
2022/04/10 04:27:20;;;;;;;;;;;;;;;4.27;100.00;99151.88;5003984;28;19948;-37
2022/04/10 04:29:45;;;;;;;;;;;;;;;4.14;100.00;99162.09;5002877;28;20279;-37
2022/04/10 04:32:12;;;;;;;;;;;;;;;3.75;100.00;99156.25;5000991;28;20213;-37
2022/04/10 04:34:38;;;;;;;;;;;;;;;4.49;100.00;99156.00;5002850;28;20440;-37
2022/04/10 04:37:03;;;;;;;;;;;;;;;4.47;100.00;99155.19;5002226;28;20540;-37
2022/04/10 04:39:28;;;;;;;;;;;;;;;4.04;100.00;99157.03;5002804;28;19924;-37
2022/04/10 04:41:53;;;;;;;;;;;;;;;3.98;100.00;99160.47;5001739;28;19976;-37
2022/04/10 04:44:19;;;;;;;;;;;;;;;3.74;100.00;99161.34;5002553;28;19928;-37
2022/04/10 04:46:44;;;;;;;;;;;;;;;3.86;100.00;99163.88;5002034;28;20457;-37
2022/04/10 04:49:09;;;;;;;;;;;;;;;3.77;100.00;99169.84;5002743;28;20016;-37
2022/04/10 04:51:36;;;;;;;;;;;;;;;3.80;100.00;99168.16;4997720;28;19925;-37
2022/04/10 04:54:02;;;;;;;;;;;;;;;3.83;100.00;99171.56;4996226;28;19921;-37
2022/04/10 04:56:27;;;;;;;;;;;;;;;4.01;100.00;99180.81;4999887;28;19941;-37
2022/04/10 04:58:53;;;;;;;;;;;;;;;4.46;100.00;99186.63;4999973;28;20024;-37
2022/04/10 05:01:18;;;;;;;;;;;;;;;4.85;100.00;99187.28;5000423;28;19961;-37
2022/04/10 05:03:43;;;;;;;;;;;;;;;3.97;100.00;99184.25;4999393;28;19917;-37
2022/04/10 05:06:09;;;;;;;;;;;;;;;4.52;100.00;99186.59;4995271;28;19948;-37
2022/04/10 05:08:34;;;;;;;;;;;;;;;4.33;100.00;99192.63;5000434;28;19974;-37
2022/04/10 05:10:59;;;;;;;;;;;;;;;4.38;100.00;99196.88;5002538;28;19928;-37
2022/04/10 05:13:25;;;;;;;;;;;;;;;4.22;100.00;99204.56;5001308;28;19921;-37
2022/04/10 05:15:50;;;;;;;;;;;;;;;4.12;100.00;99199.47;4998507;28;19997;-37
2022/04/10 05:18:17;;;;;;;;;;;;;;;4.06;100.00;99202.06;5000555;28;19928;-37
2022/04/10 05:20:43;;;;;;;;;;;;;;;4.90;100.00;99211.06;5001532;28;19921;-37
2022/04/10 05:23:08;;;;;;;;;;;;;;;5.33;100.00;99205.66;4998158;28;20411;-37
2022/04/10 05:25:36;;;;;;;;;;;;;;;5.78;100.00;99206.16;5001029;28;19953;-38
2022/04/10 05:28:01;;;;;;;;;;;;;;;5.23;100.00;99206.59;4999274;28;20150;-37
2022/04/10 05:30:26;;;;;;;;;;;;;;;5.00;100.00;99202.50;4999417;28;19917;-38
2022/04/10 05:32:51;;;;;;;;;;;;;;;4.88;100.00;99206.81;4997755;28;19925;-38
2022/04/10 05:35:17;;;;;;;;;;;;;;;5.79;100.00;99199.31;5001348;28;19913;-37
2022/04/10 05:37:42;;;;;;;;;;;;;;;6.18;100.00;99205.78;5001239;28;19922;-37
2022/04/10 05:40:07;;;;;;;;;;;;;;;5.95;100.00;99200.06;4999701;28;19917;-38
2022/04/10 05:42:36;;;;;;;;;;;;;;;5.86;100.00;99199.25;4999765;28;19928;-37
2022/04/10 05:45:02;;;;;;;;;;;;;;;5.80;100.00;99196.75;4997660;28;19948;-37
2022/04/10 05:47:27;;;;;;;;;;;;;;;5.63;100.00;99198.63;4991291;28;19921;-37
2022/04/10 05:49:53;;;;;;;;;;;;;;;5.82;100.00;99197.59;4996213;28;19972;-37
2022/04/10 05:52:18;;;;;;;;;;;;;;;5.96;100.00;99202.59;5000515;28;20420;-38
2022/04/10 05:54:43;;;;;;;;;;;;;;;4.79;100.00;99210.28;5001616;28;20271;-37
2022/04/10 05:57:08;;;;;;;;;;;;;;;4.93;100.00;99205.94;4997722;28;19922;-37
2022/04/10 05:59:34;;;;;;;;;;;;;;;5.18;100.00;99205.81;5000724;28;19927;-37
2022/04/10 06:01:59;;;;;;;;;;;;;;;5.47;100.00;99207.28;5002770;28;19956;-37
2022/04/10 06:04:24;;;;;;;;;;;;;;;6.28;100.00;99209.94;5002401;28;20347;-37
2022/04/10 06:06:49;;;;;;;;;;;;;;;6.40;100.00;99208.09;5002299;28;19921;-37
2022/04/10 06:09:15;;;;;;;;;;;;;;;5.36;100.00;99213.31;5002624;28;20016;-38
2022/04/10 06:11:40;;;;;;;;;;;;;;;5.81;100.00;99213.78;5001252;28;19917;-37
2022/04/10 06:14:06;;;;;;;;;;;;;;;6.27;100.00;99208.25;5000506;28;19923;-37
2022/04/10 06:16:31;;;;;;;;;;;;;;;6.53;100.00;99214.75;5001370;28;20368;-37
2022/04/10 06:18:56;;;;;;;;;;;;;;;7.12;100.00;99215.69;5001720;28;19924;-37
2022/04/10 06:21:21;;;;;;;;;;;;;;;6.13;100.00;99212.66;5002430;28;20449;-37
2022/04/10 06:23:47;;;;;;;;;;;;;;;6.73;100.00;99217.06;4999642;28;19921;-37
2022/04/10 06:26:12;;;;;;;;;;;;;;;6.04;100.00;99216.16;4997840;28;19936;-37
2022/04/10 06:28:37;;;;;;;;;;;;;;;5.69;100.00;99216.44;5001270;28;19929;-37
2022/04/10 06:31:02;;;;;;;;;;;;;;;5.68;100.00;99224.13;5002992;28;19917;-37
2022/04/10 06:33:27;;;;;;;;;;;;;;;5.98;100.00;99215.38;5002031;28;19922;-37
2022/04/10 06:35:54;;;;;;;;;;;;;;;5.82;100.00;99225.72;5001384;28;20513;-37
2022/04/10 06:38:19;;;;;;;;;;;;;;;6.23;100.00;99227.03;5002261;28;20011;-37
2022/04/10 06:40:47;;;;;;;;;;;;;;;5.92;100.00;99226.47;5002816;28;20052;-37
2022/04/10 06:43:12;;;;;;;;;;;;;;;5.78;100.00;99234.25;5001942;28;19921;-37
2022/04/10 06:45:37;;;;;;;;;;;;;;;5.37;100.00;99232.88;5000452;28;19934;-37
2022/04/10 06:48:03;;;;;;;;;;;;;;;5.36;100.00;99246.53;5002296;28;19971;-37
2022/04/10 06:50:28;;;;;;;;;;;;;;;5.91;100.00;99242.69;5001483;28;19918;-37
2022/04/10 06:52:53;;;;;;;;;;;;;;;5.92;100.00;99246.06;5000683;28;19944;-37
2022/04/10 06:55:18;;;;;;;;;;;;;;;5.91;100.00;99239.25;5001138;28;19991;-37
2022/04/10 06:57:44;;;;;;;;;;;;;;;5.50;100.00;99243.88;5000371;28;20023;-37
2022/04/10 07:00:09;;;;;;;;;;;;;;;5.66;100.00;99249.72;4999258;28;19922;-37
2022/04/10 07:02:35;;;;;;;;;;;;;;;5.99;100.00;99250.28;4999654;28;19921;-37
2022/04/10 07:05:00;;;;;;;;;;;;;;;6.19;100.00;99245.84;5000973;28;20375;-37
2022/04/10 07:07:25;;;;;;;;;;;;;;;6.66;100.00;99256.38;5000631;28;20480;-37
2022/04/10 07:09:50;;;;;;;;;;;;;;;5.56;100.00;99254.03;5000119;28;20477;-37
2022/04/10 07:12:16;;;;;;;;;;;;;;;5.86;100.00;99258.06;5000332;28;19939;-37
2022/04/10 07:14:41;;;;;;;;;;;;;;;6.33;100.00;99257.63;5000663;28;20206;-37
2022/04/10 07:17:06;;;;;;;;;;;;;;;5.96;100.00;99261.41;4999979;28;19929;-37
2022/04/10 07:19:31;;;;;;;;;;;;;;;5.99;100.00;99269.03;4999989;28;19983;-37
2022/04/10 07:24:41;;;;;;;;;;;;;;;5.99;100.00;99270.75;5004764;28;19979;-37
2022/04/10 07:27:06;;;;;;;;;;;;;;;6.08;100.00;99268.94;5003384;28;19922;-37
2022/04/10 07:29:31;;;;;;;;;;;;;;;6.13;100.00;99276.56;5004765;28;19921;-37
2022/04/10 07:31:57;;;;;;;;;;;;;;;5.92;100.00;99280.13;5004875;28;19921;-37
2022/04/10 07:34:22;;;;;;;;;;;;;;;6.31;100.00;99279.81;5005282;28;19976;-37
2022/04/10 07:36:47;;;;;;;;;;;;;;;6.55;100.00;99273.59;5003623;28;20413;-37
2022/04/10 07:39:12;;;;;;;;;;;;;;;7.15;100.00;99283.09;5003143;28;20415;-37
2022/04/10 07:41:38;;;;;;;;;;;;;;;7.20;100.00;99279.59;5003279;28;20417;-37
2022/04/10 07:44:03;;;;;;;;;;;;;;;6.37;100.00;99274.66;5004881;28;20346;-37
2022/04/10 07:49:12;;;;;;;;;;;;;;;6.62;100.00;99283.75;5004678;28;19924;-37
2022/04/10 07:51:38;;;;;;;;;;;;;;;6.99;100.00;99285.84;5003805;28;20013;-37
2022/04/10 07:54:03;;;;;;;;;;;;;;;6.83;100.00;99290.31;5005450;28;19917;-37
2022/04/10 07:56:29;;;;;;;;;;;;;;;6.41;100.00;99289.06;5004993;28;20389;-46
2022/04/10 07:58:54;;;;;;;;;;;;;;;6.82;100.00;99305.69;5004631;28;19928;-47
2022/04/10 08:01:19;;;;;;;;;;;;;;;6.51;100.00;99313.72;5003330;28;19917;-44
2022/04/10 08:03:51;;;;;;;;;;;;;;;6.33;100.00;99308.78;5003267;28;19917;-45
2022/04/10 08:06:16;;;;;;;;;;;;;;;6.78;100.00;99306.59;5003998;28;19925;-44
2022/04/10 08:08:41;;;;;;;;;;;;;;;6.52;100.00;99310.28;5004348;28;20424;-46
2022/04/10 08:11:07;;;;;;;;;;;;;;;6.61;100.00;99312.72;5003580;28;20275;-44
2022/04/10 08:13:33;;;;;;;;;;;;;;;7.18;100.00;99311.22;5002292;28;20012;-46
2022/04/10 08:15:58;;;;;;;;;;;;;;;7.10;100.00;99309.59;5002131;28;19983;-47
2022/04/10 08:18:23;;;;;;;;;;;;;;;7.18;100.00;99327.41;5004624;28;19917;-45
2022/04/10 08:20:49;;;;;;;;;;;;;;;7.11;100.00;99316.41;5005009;28;19923;-46
2022/04/10 08:23:15;;;;;;;;;;;;;;;7.05;100.00;99324.19;5001561;28;19921;-45
2022/04/10 08:25:41;;;;;;;;;;;;;;;7.44;100.00;99321.97;5003607;28;19936;-49
2022/04/10 08:28:06;;;;;;;;;;;;;;;7.49;100.00;99317.59;5003799;28;20362;-46
2022/04/10 08:30:31;;;;;;;;;;;;;;;8.25;100.00;99322.38;5004205;28;20010;-46
2022/04/10 08:32:56;;;;;;;;;;;;;;;7.47;100.00;99314.22;5002598;28;19921;-45
2022/04/10 08:35:21;;;;;;;;;;;;;;;7.42;100.00;99313.44;5003925;28;19921;-48
2022/04/10 08:37:47;;;;;;;;;;;;;;;6.87;100.00;99321.84;5001867;28;20063;-47
2022/04/10 08:40:12;;;;;;;;;;;;;;;7.85;100.00;99320.50;5003459;28;19956;-45
2022/04/10 08:42:37;;;;;;;;;;;;;;;7.58;100.00;99321.75;5003775;28;19970;-46
2022/04/10 08:45:03;;;;;;;;;;;;;;;7.74;100.00;99324.94;5003164;28;20279;-46
2022/04/10 08:47:29;;;;;;;;;;;;;;;8.49;100.00;99325.44;5002242;28;19922;-45
2022/04/10 08:49:54;;;;;;;;;;;;;;;8.35;100.00;99326.50;5004088;28;19918;-45
2022/04/10 08:52:20;;;;;;;;;;;;;;;8.67;100.00;99330.22;5000494;28;19917;-47
2022/04/10 08:54:46;;;;;;;;;;;;;;;8.99;100.00;99318.47;5000883;28;20585;-48
2022/04/10 08:57:12;;;;;;;;;;;;;;;7.62;100.00;99312.28;4999416;28;20015;-48
2022/04/10 08:59:37;;;;;;;;;;;;;;;8.43;100.00;99312.72;5001459;28;19929;-47
2022/04/10 09:02:03;;;;;;;;;;;;;;;7.48;100.00;99318.50;5001877;28;20412;-46
2022/04/10 09:04:29;;;;;;;;;;;;;;;7.10;100.00;99324.97;5002546;28;19925;-49
2022/04/10 09:07:05;;;;;;;;;;;;;;;8.20;100.00;99316.50;5001472;28;19952;-46
2022/04/10 09:09:31;;;;;;;;;;;;;;;7.77;100.00;99318.91;5002549;28;19917;-45
2022/04/10 09:11:56;;;;;;;;;;;;;;;7.40;100.00;99316.91;5002485;28;19936;-48
2022/04/10 09:14:22;;;;;;;;;;;;;;;7.69;100.00;99324.16;5003140;28;19917;-46
2022/04/10 09:16:51;;;;;;;;;;;;;;;7.56;100.00;99323.50;5002419;28;20039;-46
2022/04/10 09:19:17;;;;;;;;;;;;;;;7.47;100.00;99334.72;5000485;28;19925;-47
2022/04/10 09:21:43;;;;;;;;;;;;;;;7.91;100.00;99334.91;5001512;28;19917;-47
2022/04/10 09:24:12;;;;;;;;;;;;;;;7.24;100.00;99321.38;5002868;28;19918;-49
2022/04/10 09:26:50;;;;;;;;;;;;;;;7.06;100.00;99337.84;5002509;28;20666;-47
2022/04/10 09:29:16;;;;;;;;;;;;;;;7.05;100.00;99337.00;5001228;28;19932;-47
2022/04/10 09:31:41;;;;;;;;;;;;;;;6.92;100.00;99348.25;5000708;28;19984;-47
2022/04/10 09:34:11;;;;;;;;;;;;;;;6.60;100.00;99333.25;5002481;28;20436;-46
2022/04/10 09:36:37;;;;;;;;;;;;;;;6.83;100.00;99340.66;5002137;28;19925;-47
2022/04/10 09:39:03;;;;;;;;;;;;;;;7.01;100.00;99340.44;5001113;28;19918;-49
2022/04/10 09:41:28;;;;;;;;;;;;;;;6.64;100.00;99335.75;5001777;28;19917;-49
2022/04/10 09:43:58;;;;;;;;;;;;;;;6.90;100.00;99339.72;5002228;28;20477;-49
2022/04/10 09:46:23;;;;;;;;;;;;;;;7.27;100.00;99346.94;4999488;28;20111;-45
2022/04/10 09:48:49;;;;;;;;;;;;;;;7.57;100.00;99345.69;5001277;28;20003;-46
2022/04/10 09:51:14;;;;;;;;;;;;;;;7.25;100.00;99349.56;5001028;28;19917;-46
2022/04/10 09:53:40;;;;;;;;;;;;;;;7.27;100.00;99342.66;5001338;28;19921;-45
2022/04/10 09:56:05;;;;;;;;;;;;;;;6.90;100.00;99352.53;5001008;28;19917;-49
2022/04/10 09:58:31;;;;;;;;;;;;;;;7.18;100.00;99341.94;5000237;28;19932;-50
2022/04/10 10:00:57;;;;;;;;;;;;;;;7.57;100.00;99344.84;5001235;28;19979;-49
2022/04/10 10:03:23;;;;;;;;;;;;;;;7.23;100.00;99347.84;5000794;28;19924;-46
2022/04/10 10:05:49;;;;;;;;;;;;;;;7.73;100.00;99347.19;5001078;28;20492;-47
2022/04/10 10:08:14;;;;;;;;;;;;;;;7.49;100.00;99348.38;4999867;28;20016;-45
2022/04/10 10:10:40;;;;;;;;;;;;;;;7.30;100.00;99339.25;4994513;28;20559;-47
2022/04/10 10:13:06;;;;;;;;;;;;;;;7.30;100.00;99341.81;5000324;28;20005;-46
2022/04/10 10:15:32;;;;;;;;;;;;;;;7.22;100.00;99343.59;4982765;28;19926;-45
2022/04/10 10:17:57;;;;;;;;;;;;;;;7.25;100.00;99341.88;4998323;28;19917;-47
2022/04/10 10:20:23;;;;;;;;;;;;;;;7.66;100.00;99330.19;4998716;28;19925;-50
2022/04/10 10:22:48;;;;;;;;;;;;;;;7.19;100.00;99341.94;5000004;28;19967;-49
2022/04/10 10:25:18;;;;;;;;;;;;;;;7.53;100.00;99334.63;5001476;28;19949;-47
2022/04/10 10:27:47;;;;;;;;;;;;;;;7.53;100.00;99344.88;4999439;28;20024;-47
2022/04/10 10:30:20;;;;;;;;;;;;;;;7.81;100.00;99329.09;4998958;28;20638;-48
2022/04/10 10:32:50;;;;;;;;;;;;;;;8.46;100.00;99333.19;4997001;28;19917;-48
2022/04/10 10:35:35;;;;;;;;;;;;;;;8.95;100.00;99321.97;4991295;28;19925;-49
2022/04/10 10:38:00;;;;;;;;;;;;;;;8.78;100.00;99324.88;4987390;28;20008;-48
2022/04/10 10:40:26;;;;;;;;;;;;;;;9.38;100.00;99323.66;4998150;28;19921;-47
2022/04/10 10:42:51;;;;;;;;;;;;;;;9.30;100.00;99320.38;5000538;28;20404;-46
2022/04/10 10:45:37;;;;;;;;;;;;;;;8.71;100.00;99318.16;4999712;28;20290;-50
2022/04/10 10:48:21;;;;;;;;;;;;;;;8.40;100.00;99333.28;4997133;28;19921;-47
2022/04/10 10:50:46;;;;;;;;;;;;;;;8.62;100.00;99314.06;4999309;28;20387;-47
2022/04/10 10:53:12;;;;;;;;;;;;;;;8.50;100.00;99327.94;4995914;28;19921;-50
2022/04/10 10:55:44;;;;;;;;;;;;;;;8.61;100.00;99317.50;4997645;28;20555;-48
2022/04/10 10:58:14;;;;;;;;;;;;;;;7.84;100.00;99323.91;5000036;28;20023;-50
2022/04/10 11:00:39;;;;;;;;;;;;;;;8.34;100.00;99322.22;5003752;28;19917;-50
2022/04/10 11:03:08;;;;;;;;;;;;;;;8.61;100.00;99311.53;5002868;28;19928;-47
2022/04/10 11:05:34;;;;;;;;;;;;;;;9.00;100.00;99310.72;5001601;28;19929;-47
2022/04/10 11:08:04;;;;;;;;;;;;;;;8.19;100.00;99319.94;5002686;28;19921;-50
2022/04/10 11:10:29;;;;;;;;;;;;;;;8.46;100.00;99328.03;5002159;28;19927;-46
2022/04/10 11:13:02;;;;;;;;;;;;;;;8.43;100.00;99318.69;5002789;28;19921;-47
2022/04/10 11:15:31;;;;;;;;;;;;;;;9.37;100.00;99311.66;5001459;28;19929;-47
2022/04/10 11:18:02;;;;;;;;;;;;;;;8.53;100.00;99304.81;5002574;28;19928;-47
2022/04/10 11:20:27;;;;;;;;;;;;;;;8.20;100.00;99308.78;5002922;28;19952;-48
2022/04/10 11:22:53;;;;;;;;;;;;;;;8.53;100.00;99311.66;4992608;28;19965;-46
2022/04/10 11:25:39;;;;;;;;;;;;;;;8.82;100.00;99320.53;5004600;28;20481;-48
2022/04/10 11:28:07;;;;;;;;;;;;;;;8.54;100.00;99319.34;5005065;28;19921;-47
2022/04/10 11:30:39;;;;;;;;;;;;;;;8.17;100.00;99322.53;5005833;28;20038;-45
2022/04/10 11:33:05;;;;;;;;;;;;;;;8.71;100.00;99313.03;5004621;28;20293;-47
2022/04/10 11:35:31;;;;;;;;;;;;;;;9.42;100.00;99322.72;5003974;28;19922;-47
2022/04/10 11:38:00;;;;;;;;;;;;;;;8.70;100.00;99316.47;5004660;28;19921;-48
2022/04/10 11:40:32;;;;;;;;;;;;;;;8.20;100.00;99318.22;5003195;28;20372;-45
2022/04/10 11:42:58;;;;;;;;;;;;;;;7.70;100.00;99315.59;5004599;28;19917;-49
2022/04/10 11:45:24;;;;;;;;;;;;;;;8.00;100.00;99327.06;5004568;28;19929;-46
2022/04/10 11:47:50;;;;;;;;;;;;;;;7.78;100.00;99331.72;5004489;28;19964;-47
2022/04/10 11:50:15;;;;;;;;;;;;;;;8.48;100.00;99331.44;5003849;28;19917;-46
2022/04/10 11:52:41;;;;;;;;;;;;;;;8.29;100.00;99334.28;5002581;28;19963;-45
2022/04/10 11:55:08;;;;;;;;;;;;;;;8.78;100.00;99315.47;5003471;28;20410;-48
2022/04/10 11:57:33;;;;;;;;;;;;;;;9.74;100.00;99316.81;5004211;28;19925;-45
2022/04/10 11:59:58;;;;;;;;;;;;;;;10.00;100.00;99310.19;5002570;28;19925;-48
2022/04/10 12:02:24;;;;;;;;;;;;;;;9.01;100.00;99298.75;5003987;28;19940;-45
2022/04/10 12:04:50;;;;;;;;;;;;;;;9.11;100.00;99299.38;5001556;28;19950;-45
2022/04/10 12:07:21;;;;;;;;;;;;;;;9.67;100.00;99301.56;5003740;28;19921;-44
2022/04/10 12:09:47;;;;;;;;;;;;;;;9.72;100.00;99315.19;5002386;28;19975;-46
2022/04/10 12:12:12;;;;;;;;;;;;;;;9.74;100.00;99308.25;5003607;28;19917;-46
2022/04/10 12:14:38;;;;;;;;;;;;;;;9.97;100.00;99300.00;5004395;28;19917;-46
2022/04/10 12:17:03;;;;;;;;;;;;;;;10.10;100.00;99295.38;5009849;28;19929;-45
2022/04/10 12:19:35;;;;;;;;;;;;;;;9.57;100.00;99299.19;5002305;28;20285;-45
2022/04/10 12:22:07;;;;;;;;;;;;;;;9.04;100.00;99314.09;5003222;28;19991;-46
2022/04/10 12:24:33;;;;;;;;;;;;;;;9.96;100.00;99298.28;5003604;28;19925;-45
2022/04/10 12:26:58;;;;;;;;;;;;;;;9.78;100.00;99294.44;5002216;28;19937;-47
2022/04/10 12:29:24;;;;;;;;;;;;;;;9.74;100.00;99287.66;5003349;28;20762;-46
2022/04/10 12:31:49;;;;;;;;;;;;;;;9.10;100.00;99303.69;5003035;28;19917;-46
2022/04/10 12:34:15;;;;;;;;;;;;;;;8.86;100.00;99304.19;5002735;28;19976;-46
2022/04/10 12:36:46;;;;;;;;;;;;;;;9.09;100.00;99319.13;5001574;28;19921;-47
2022/04/10 12:39:21;;;;;;;;;;;;;;;9.40;100.00;99299.59;5003274;28;19924;-45
2022/04/10 12:41:46;;;;;;;;;;;;;;;9.50;100.00;99295.09;5001239;28;19921;-45
2022/04/10 12:44:11;;;;;;;;;;;;;;;10.14;100.00;99291.84;5001781;28;19975;-46